sensor_id;sensor_type;location;lat;lon;timestamp;P1;durP1;ratioP1;P2;durP2;ratioP2
1685;SDS011;840;47.980;7.830;2023-06-26T00:01:04;5.67;;;5.03;;
1685;SDS011;840;47.980;7.830;2023-06-26T00:03:31;4.57;;;4.17;;
1685;SDS011;840;47.980;7.830;2023-06-26T00:05:58;5.67;;;4.27;;
1685;SDS011;840;47.980;7.830;2023-06-26T00:08:25;4.73;;;4.33;;
1685;SDS011;840;47.980;7.830;2023-06-26T00:10:53;5.30;;;4.80;;
1685;SDS011;840;47.980;7.830;2023-06-26T00:13:19;5.30;;;4.80;;
1685;SDS011;840;47.980;7.830;2023-06-26T00:15:47;6.17;;;4.83;;
1685;SDS011;840;47.980;7.830;2023-06-26T00:18:14;5.63;;;5.13;;
1685;SDS011;840;47.980;7.830;2023-06-26T00:20:41;5.70;;;5.20;;
1685;SDS011;840;47.980;7.830;2023-06-26T00:23:08;5.40;;;4.90;;
1685;SDS011;840;47.980;7.830;2023-06-26T00:25:34;5.27;;;4.87;;
1685;SDS011;840;47.980;7.830;2023-06-26T00:28:01;4.90;;;4.50;;
1685;SDS011;840;47.980;7.830;2023-06-26T00:30:28;5.07;;;4.57;;
1685;SDS011;840;47.980;7.830;2023-06-26T00:32:56;6.10;;;5.23;;
1685;SDS011;840;47.980;7.830;2023-06-26T00:35:23;5.40;;;4.90;;
1685;SDS011;840;47.980;7.830;2023-06-26T00:37:50;5.60;;;5.10;;
1685;SDS011;840;47.980;7.830;2023-06-26T00:40:16;5.20;;;4.70;;
1685;SDS011;840;47.980;7.830;2023-06-26T00:42:43;29.80;;;23.73;;
1685;SDS011;840;47.980;7.830;2023-06-26T00:45:10;16.33;;;14.50;;
1685;SDS011;840;47.980;7.830;2023-06-26T00:47:37;10.17;;;8.73;;
1685;SDS011;840;47.980;7.830;2023-06-26T00:50:06;6.90;;;6.30;;
1685;SDS011;840;47.980;7.830;2023-06-26T00:52:34;8.03;;;7.17;;
1685;SDS011;840;47.980;7.830;2023-06-26T00:55:00;6.83;;;6.13;;
1685;SDS011;840;47.980;7.830;2023-06-26T00:57:27;5.90;;;5.37;;
1685;SDS011;840;47.980;7.830;2023-06-26T00:59:55;6.00;;;5.33;;
1685;SDS011;840;47.980;7.830;2023-06-26T01:02:23;6.20;;;5.50;;
1685;SDS011;840;47.980;7.830;2023-06-26T01:04:52;6.43;;;5.83;;
1685;SDS011;840;47.980;7.830;2023-06-26T01:07:20;5.03;;;4.60;;
1685;SDS011;840;47.980;7.830;2023-06-26T01:09:48;7.07;;;5.03;;
1685;SDS011;840;47.980;7.830;2023-06-26T01:12:15;5.60;;;5.20;;
1685;SDS011;840;47.980;7.830;2023-06-26T01:14:42;6.30;;;5.30;;
1685;SDS011;840;47.980;7.830;2023-06-26T01:17:09;5.23;;;4.63;;
1685;SDS011;840;47.980;7.830;2023-06-26T01:19:40;7.10;;;4.70;;
1685;SDS011;840;47.980;7.830;2023-06-26T01:22:10;5.20;;;4.73;;
1685;SDS011;840;47.980;7.830;2023-06-26T01:24:44;4.97;;;4.33;;
1685;SDS011;840;47.980;7.830;2023-06-26T01:27:24;6.50;;;5.43;;
1685;SDS011;840;47.980;7.830;2023-06-26T01:29:51;6.60;;;5.00;;
1685;SDS011;840;47.980;7.830;2023-06-26T01:32:20;6.00;;;5.50;;
1685;SDS011;840;47.980;7.830;2023-06-26T01:34:48;6.13;;;5.60;;
1685;SDS011;840;47.980;7.830;2023-06-26T01:37:15;8.30;;;5.60;;
1685;SDS011;840;47.980;7.830;2023-06-26T01:39:42;5.57;;;5.07;;
1685;SDS011;840;47.980;7.830;2023-06-26T01:42:09;5.37;;;4.87;;
1685;SDS011;840;47.980;7.830;2023-06-26T01:44:37;6.10;;;5.30;;
1685;SDS011;840;47.980;7.830;2023-06-26T01:47:10;6.10;;;5.50;;
1685;SDS011;840;47.980;7.830;2023-06-26T01:49:44;6.50;;;5.20;;
1685;SDS011;840;47.980;7.830;2023-06-26T01:52:16;5.57;;;5.07;;
1685;SDS011;840;47.980;7.830;2023-06-26T01:54:49;4.97;;;4.50;;
1685;SDS011;840;47.980;7.830;2023-06-26T01:57:22;5.70;;;5.10;;
1685;SDS011;840;47.980;7.830;2023-06-26T01:59:54;5.20;;;4.70;;
1685;SDS011;840;47.980;7.830;2023-06-26T02:02:23;5.33;;;4.83;;
1685;SDS011;840;47.980;7.830;2023-06-26T02:04:50;6.03;;;5.13;;
1685;SDS011;840;47.980;7.830;2023-06-26T02:07:17;5.77;;;5.27;;
1685;SDS011;840;47.980;7.830;2023-06-26T02:09:44;5.20;;;4.80;;
1685;SDS011;840;47.980;7.830;2023-06-26T02:12:11;6.83;;;5.73;;
1685;SDS011;840;47.980;7.830;2023-06-26T02:14:37;4.93;;;4.53;;
1685;SDS011;840;47.980;7.830;2023-06-26T02:17:06;5.63;;;5.13;;
1685;SDS011;840;47.980;7.830;2023-06-26T02:19:33;5.27;;;4.77;;
1685;SDS011;840;47.980;7.830;2023-06-26T02:22:00;5.33;;;4.83;;
1685;SDS011;840;47.980;7.830;2023-06-26T02:24:27;5.70;;;5.17;;
1685;SDS011;840;47.980;7.830;2023-06-26T02:26:55;5.57;;;4.90;;
1685;SDS011;840;47.980;7.830;2023-06-26T02:29:22;5.43;;;4.93;;
1685;SDS011;840;47.980;7.830;2023-06-26T02:31:48;5.03;;;4.63;;
1685;SDS011;840;47.980;7.830;2023-06-26T02:34:16;5.87;;;5.27;;
1685;SDS011;840;47.980;7.830;2023-06-26T02:36:43;5.00;;;4.60;;
1685;SDS011;840;47.980;7.830;2023-06-26T02:39:10;5.93;;;4.83;;
1685;SDS011;840;47.980;7.830;2023-06-26T02:41:37;6.07;;;4.80;;
1685;SDS011;840;47.980;7.830;2023-06-26T02:44:04;5.80;;;5.30;;
1685;SDS011;840;47.980;7.830;2023-06-26T02:46:31;6.00;;;5.37;;
1685;SDS011;840;47.980;7.830;2023-06-26T02:48:58;5.13;;;4.63;;
1685;SDS011;840;47.980;7.830;2023-06-26T02:51:26;5.73;;;5.20;;
1685;SDS011;840;47.980;7.830;2023-06-26T02:53:53;5.23;;;4.80;;
1685;SDS011;840;47.980;7.830;2023-06-26T02:56:20;7.17;;;6.07;;
1685;SDS011;840;47.980;7.830;2023-06-26T02:58:47;5.23;;;4.83;;
1685;SDS011;840;47.980;7.830;2023-06-26T03:01:14;5.90;;;5.40;;
1685;SDS011;840;47.980;7.830;2023-06-26T03:03:41;5.10;;;4.70;;
1685;SDS011;840;47.980;7.830;2023-06-26T03:06:08;6.47;;;5.73;;
1685;SDS011;840;47.980;7.830;2023-06-26T03:08:36;5.63;;;5.13;;
1685;SDS011;840;47.980;7.830;2023-06-26T03:11:04;5.37;;;4.90;;
1685;SDS011;840;47.980;7.830;2023-06-26T03:13:31;4.70;;;4.30;;
1685;SDS011;840;47.980;7.830;2023-06-26T03:15:59;6.43;;;5.13;;
1685;SDS011;840;47.980;7.830;2023-06-26T03:18:26;5.20;;;4.60;;
1685;SDS011;840;47.980;7.830;2023-06-26T03:20:53;6.67;;;6.07;;
1685;SDS011;840;47.980;7.830;2023-06-26T03:23:20;5.63;;;5.10;;
1685;SDS011;840;47.980;7.830;2023-06-26T03:25:49;8.30;;;5.73;;
1685;SDS011;840;47.980;7.830;2023-06-26T03:28:16;5.90;;;5.40;;
1685;SDS011;840;47.980;7.830;2023-06-26T03:30:43;7.03;;;6.33;;
1685;SDS011;840;47.980;7.830;2023-06-26T03:33:10;5.70;;;5.20;;
1685;SDS011;840;47.980;7.830;2023-06-26T03:35:37;8.93;;;5.00;;
1685;SDS011;840;47.980;7.830;2023-06-26T03:38:04;5.77;;;5.17;;
1685;SDS011;840;47.980;7.830;2023-06-26T03:40:31;5.80;;;5.30;;
1685;SDS011;840;47.980;7.830;2023-06-26T03:42:59;5.50;;;5.00;;
1685;SDS011;840;47.980;7.830;2023-06-26T03:45:26;5.30;;;4.80;;
1685;SDS011;840;47.980;7.830;2023-06-26T03:47:52;6.20;;;5.67;;
1685;SDS011;840;47.980;7.830;2023-06-26T03:50:19;5.60;;;5.07;;
1685;SDS011;840;47.980;7.830;2023-06-26T03:52:46;5.40;;;5.00;;
1685;SDS011;840;47.980;7.830;2023-06-26T03:55:14;6.20;;;5.60;;
1685;SDS011;840;47.980;7.830;2023-06-26T03:57:41;5.83;;;5.33;;
1685;SDS011;840;47.980;7.830;2023-06-26T04:00:15;5.90;;;5.30;;
1685;SDS011;840;47.980;7.830;2023-06-26T04:02:43;6.20;;;5.37;;
1685;SDS011;840;47.980;7.830;2023-06-26T04:05:10;7.10;;;6.00;;
1685;SDS011;840;47.980;7.830;2023-06-26T04:07:36;6.13;;;5.63;;
1685;SDS011;840;47.980;7.830;2023-06-26T04:10:04;6.37;;;5.77;;
1685;SDS011;840;47.980;7.830;2023-06-26T04:12:31;5.90;;;5.27;;
1685;SDS011;840;47.980;7.830;2023-06-26T04:14:58;6.60;;;5.50;;
1685;SDS011;840;47.980;7.830;2023-06-26T04:17:26;6.60;;;5.53;;
1685;SDS011;840;47.980;7.830;2023-06-26T04:19:53;5.20;;;4.70;;
1685;SDS011;840;47.980;7.830;2023-06-26T04:22:19;5.40;;;4.90;;
1685;SDS011;840;47.980;7.830;2023-06-26T04:24:46;6.67;;;5.60;;
1685;SDS011;840;47.980;7.830;2023-06-26T04:27:14;6.20;;;5.67;;
1685;SDS011;840;47.980;7.830;2023-06-26T04:29:41;5.80;;;5.13;;
1685;SDS011;840;47.980;7.830;2023-06-26T04:32:07;6.43;;;5.83;;
1685;SDS011;840;47.980;7.830;2023-06-26T04:34:35;7.90;;;6.40;;
1685;SDS011;840;47.980;7.830;2023-06-26T04:37:06;5.53;;;5.03;;
1685;SDS011;840;47.980;7.830;2023-06-26T04:39:34;6.60;;;6.10;;
1685;SDS011;840;47.980;7.830;2023-06-26T04:42:01;5.17;;;4.67;;
1685;SDS011;840;47.980;7.830;2023-06-26T04:44:28;8.23;;;5.20;;
1685;SDS011;840;47.980;7.830;2023-06-26T04:46:55;5.83;;;4.63;;
1685;SDS011;840;47.980;7.830;2023-06-26T04:49:22;5.70;;;5.20;;
1685;SDS011;840;47.980;7.830;2023-06-26T04:51:50;7.47;;;6.03;;
1685;SDS011;840;47.980;7.830;2023-06-26T04:54:18;6.83;;;6.13;;
1685;SDS011;840;47.980;7.830;2023-06-26T04:56:44;6.60;;;6.00;;
1685;SDS011;840;47.980;7.830;2023-06-26T04:59:12;6.70;;;6.10;;
1685;SDS011;840;47.980;7.830;2023-06-26T05:01:39;6.23;;;5.73;;
1685;SDS011;840;47.980;7.830;2023-06-26T05:04:06;5.87;;;5.27;;
1685;SDS011;840;47.980;7.830;2023-06-26T05:06:33;6.67;;;6.10;;
1685;SDS011;840;47.980;7.830;2023-06-26T05:09:02;6.00;;;5.50;;
1685;SDS011;840;47.980;7.830;2023-06-26T05:11:28;5.43;;;4.93;;
1685;SDS011;840;47.980;7.830;2023-06-26T05:13:55;5.97;;;5.47;;
1685;SDS011;840;47.980;7.830;2023-06-26T05:16:22;6.10;;;5.60;;
1685;SDS011;840;47.980;7.830;2023-06-26T05:18:49;5.90;;;5.37;;
1685;SDS011;840;47.980;7.830;2023-06-26T05:21:16;6.20;;;5.53;;
1685;SDS011;840;47.980;7.830;2023-06-26T05:23:43;6.33;;;5.80;;
1685;SDS011;840;47.980;7.830;2023-06-26T05:26:14;6.53;;;5.93;;
1685;SDS011;840;47.980;7.830;2023-06-26T05:28:41;5.80;;;5.30;;
1685;SDS011;840;47.980;7.830;2023-06-26T05:31:13;10.67;;;5.90;;
1685;SDS011;840;47.980;7.830;2023-06-26T05:33:40;9.07;;;7.20;;
1685;SDS011;840;47.980;7.830;2023-06-26T05:36:10;6.00;;;5.50;;
1685;SDS011;840;47.980;7.830;2023-06-26T05:38:39;5.83;;;5.30;;
1685;SDS011;840;47.980;7.830;2023-06-26T05:41:06;6.93;;;5.90;;
1685;SDS011;840;47.980;7.830;2023-06-26T05:43:35;6.30;;;5.70;;
1685;SDS011;840;47.980;7.830;2023-06-26T05:46:02;6.23;;;5.60;;
1685;SDS011;840;47.980;7.830;2023-06-26T05:48:29;5.23;;;4.73;;
1685;SDS011;840;47.980;7.830;2023-06-26T05:50:56;6.30;;;5.70;;
1685;SDS011;840;47.980;7.830;2023-06-26T05:53:23;6.03;;;5.53;;
1685;SDS011;840;47.980;7.830;2023-06-26T05:55:50;6.20;;;5.60;;
1685;SDS011;840;47.980;7.830;2023-06-26T05:58:18;6.57;;;6.03;;
1685;SDS011;840;47.980;7.830;2023-06-26T06:00:49;5.70;;;5.20;;
1685;SDS011;840;47.980;7.830;2023-06-26T06:03:15;7.17;;;6.07;;
1685;SDS011;840;47.980;7.830;2023-06-26T06:05:43;7.00;;;5.70;;
1685;SDS011;840;47.980;7.830;2023-06-26T06:08:09;6.87;;;6.27;;
1685;SDS011;840;47.980;7.830;2023-06-26T06:10:37;6.33;;;5.70;;
1685;SDS011;840;47.980;7.830;2023-06-26T06:13:03;6.60;;;5.50;;
1685;SDS011;840;47.980;7.830;2023-06-26T06:15:30;12.13;;;5.77;;
1685;SDS011;840;47.980;7.830;2023-06-26T06:17:58;6.17;;;5.67;;
1685;SDS011;840;47.980;7.830;2023-06-26T06:20:25;6.13;;;5.60;;
1685;SDS011;840;47.980;7.830;2023-06-26T06:22:52;5.63;;;5.03;;
1685;SDS011;840;47.980;7.830;2023-06-26T06:25:19;6.40;;;5.80;;
1685;SDS011;840;47.980;7.830;2023-06-26T06:27:46;6.17;;;5.67;;
1685;SDS011;840;47.980;7.830;2023-06-26T06:30:13;6.80;;;6.20;;
1685;SDS011;840;47.980;7.830;2023-06-26T06:32:39;6.47;;;5.87;;
1685;SDS011;840;47.980;7.830;2023-06-26T06:35:08;5.57;;;5.03;;
1685;SDS011;840;47.980;7.830;2023-06-26T06:37:35;8.67;;;5.80;;
1685;SDS011;840;47.980;7.830;2023-06-26T06:40:02;6.30;;;5.70;;
1685;SDS011;840;47.980;7.830;2023-06-26T06:42:30;6.83;;;6.10;;
1685;SDS011;840;47.980;7.830;2023-06-26T06:44:57;6.27;;;5.67;;
1685;SDS011;840;47.980;7.830;2023-06-26T06:47:24;6.07;;;5.47;;
1685;SDS011;840;47.980;7.830;2023-06-26T06:49:51;7.50;;;5.50;;
1685;SDS011;840;47.980;7.830;2023-06-26T06:52:20;5.40;;;4.90;;
1685;SDS011;840;47.980;7.830;2023-06-26T06:54:53;5.77;;;5.27;;
1685;SDS011;840;47.980;7.830;2023-06-26T06:57:20;6.17;;;5.57;;
1685;SDS011;840;47.980;7.830;2023-06-26T06:59:47;5.97;;;5.47;;
1685;SDS011;840;47.980;7.830;2023-06-26T07:02:14;6.23;;;5.73;;
1685;SDS011;840;47.980;7.830;2023-06-26T07:04:42;5.80;;;5.30;;
1685;SDS011;840;47.980;7.830;2023-06-26T07:07:09;5.97;;;5.37;;
1685;SDS011;840;47.980;7.830;2023-06-26T07:09:37;4.43;;;4.13;;
1685;SDS011;840;47.980;7.830;2023-06-26T07:12:04;6.43;;;5.83;;
1685;SDS011;840;47.980;7.830;2023-06-26T07:14:32;5.87;;;5.37;;
1685;SDS011;840;47.980;7.830;2023-06-26T07:16:59;8.97;;;5.50;;
1685;SDS011;840;47.980;7.830;2023-06-26T07:19:25;6.17;;;5.57;;
1685;SDS011;840;47.980;7.830;2023-06-26T07:21:52;6.00;;;5.50;;
1685;SDS011;840;47.980;7.830;2023-06-26T07:24:19;5.47;;;4.97;;
1685;SDS011;840;47.980;7.830;2023-06-26T07:26:47;5.53;;;5.13;;
1685;SDS011;840;47.980;7.830;2023-06-26T07:29:14;5.80;;;5.20;;
1685;SDS011;840;47.980;7.830;2023-06-26T07:31:40;6.57;;;5.97;;
1685;SDS011;840;47.980;7.830;2023-06-26T07:34:07;6.30;;;5.03;;
1685;SDS011;840;47.980;7.830;2023-06-26T07:36:34;7.97;;;5.93;;
1685;SDS011;840;47.980;7.830;2023-06-26T07:39:01;6.70;;;5.40;;
1685;SDS011;840;47.980;7.830;2023-06-26T07:41:28;5.10;;;4.70;;
1685;SDS011;840;47.980;7.830;2023-06-26T07:43:57;7.03;;;4.83;;
1685;SDS011;840;47.980;7.830;2023-06-26T07:46:24;5.97;;;5.37;;
1685;SDS011;840;47.980;7.830;2023-06-26T07:48:51;5.10;;;4.70;;
1685;SDS011;840;47.980;7.830;2023-06-26T07:51:18;4.00;;;3.70;;
1685;SDS011;840;47.980;7.830;2023-06-26T07:53:45;6.20;;;5.70;;
1685;SDS011;840;47.980;7.830;2023-06-26T07:56:12;4.93;;;4.53;;
1685;SDS011;840;47.980;7.830;2023-06-26T07:58:39;5.97;;;4.90;;
1685;SDS011;840;47.980;7.830;2023-06-26T08:01:07;5.70;;;5.20;;
1685;SDS011;840;47.980;7.830;2023-06-26T08:03:34;5.30;;;4.90;;
1685;SDS011;840;47.980;7.830;2023-06-26T08:06:01;5.70;;;5.17;;
1685;SDS011;840;47.980;7.830;2023-06-26T08:08:29;8.10;;;5.10;;
1685;SDS011;840;47.980;7.830;2023-06-26T08:10:55;5.37;;;4.93;;
1685;SDS011;840;47.980;7.830;2023-06-26T08:13:22;6.63;;;6.03;;
1685;SDS011;840;47.980;7.830;2023-06-26T08:15:49;6.13;;;5.63;;
1685;SDS011;840;47.980;7.830;2023-06-26T08:18:18;4.80;;;4.40;;
1685;SDS011;840;47.980;7.830;2023-06-26T08:20:45;8.20;;;5.10;;
1685;SDS011;840;47.980;7.830;2023-06-26T08:23:12;7.90;;;5.77;;
1685;SDS011;840;47.980;7.830;2023-06-26T08:25:39;6.00;;;5.50;;
1685;SDS011;840;47.980;7.830;2023-06-26T08:28:05;6.23;;;5.73;;
1685;SDS011;840;47.980;7.830;2023-06-26T08:30:32;5.50;;;4.47;;
1685;SDS011;840;47.980;7.830;2023-06-26T08:32:59;6.20;;;5.67;;
1685;SDS011;840;47.980;7.830;2023-06-26T08:35:27;5.50;;;5.00;;
1685;SDS011;840;47.980;7.830;2023-06-26T08:37:54;7.23;;;6.13;;
1685;SDS011;840;47.980;7.830;2023-06-26T08:40:20;6.80;;;6.20;;
1685;SDS011;840;47.980;7.830;2023-06-26T08:42:47;6.80;;;6.03;;
1685;SDS011;840;47.980;7.830;2023-06-26T08:45:17;7.10;;;6.50;;
1685;SDS011;840;47.980;7.830;2023-06-26T08:47:44;6.73;;;5.73;;
1685;SDS011;840;47.980;7.830;2023-06-26T08:50:14;7.40;;;5.83;;
1685;SDS011;840;47.980;7.830;2023-06-26T08:52:48;6.23;;;5.63;;
1685;SDS011;840;47.980;7.830;2023-06-26T08:55:20;5.60;;;5.10;;
1685;SDS011;840;47.980;7.830;2023-06-26T08:57:50;6.40;;;5.90;;
1685;SDS011;840;47.980;7.830;2023-06-26T09:00:17;6.67;;;6.13;;
1685;SDS011;840;47.980;7.830;2023-06-26T09:02:45;7.03;;;6.33;;
1685;SDS011;840;47.980;7.830;2023-06-26T09:05:12;9.03;;;7.07;;
1685;SDS011;840;47.980;7.830;2023-06-26T09:07:38;5.90;;;5.40;;
1685;SDS011;840;47.980;7.830;2023-06-26T09:10:08;8.60;;;6.30;;
1685;SDS011;840;47.980;7.830;2023-06-26T09:12:36;7.50;;;6.13;;
1685;SDS011;840;47.980;7.830;2023-06-26T09:15:03;8.67;;;7.83;;
1685;SDS011;840;47.980;7.830;2023-06-26T09:17:34;6.60;;;6.10;;
1685;SDS011;840;47.980;7.830;2023-06-26T09:20:06;6.67;;;5.97;;
1685;SDS011;840;47.980;7.830;2023-06-26T09:22:36;6.47;;;5.90;;
1685;SDS011;840;47.980;7.830;2023-06-26T09:25:04;7.43;;;6.83;;
1685;SDS011;840;47.980;7.830;2023-06-26T09:27:35;7.47;;;6.67;;
1685;SDS011;840;47.980;7.830;2023-06-26T09:30:02;7.47;;;6.87;;
1685;SDS011;840;47.980;7.830;2023-06-26T09:32:33;8.37;;;7.57;;
1685;SDS011;840;47.980;7.830;2023-06-26T09:35:01;6.93;;;6.30;;
1685;SDS011;840;47.980;7.830;2023-06-26T09:37:29;6.80;;;6.30;;
1685;SDS011;840;47.980;7.830;2023-06-26T09:39:55;6.57;;;6.00;;
1685;SDS011;840;47.980;7.830;2023-06-26T09:42:24;10.80;;;6.97;;
1685;SDS011;840;47.980;7.830;2023-06-26T09:44:51;8.43;;;7.50;;
1685;SDS011;840;47.980;7.830;2023-06-26T09:47:19;6.60;;;6.00;;
1685;SDS011;840;47.980;7.830;2023-06-26T09:49:46;7.87;;;7.17;;
1685;SDS011;840;47.980;7.830;2023-06-26T09:52:13;7.50;;;6.70;;
1685;SDS011;840;47.980;7.830;2023-06-26T09:54:42;8.97;;;8.10;;
1685;SDS011;840;47.980;7.830;2023-06-26T09:57:10;7.57;;;6.63;;
1685;SDS011;840;47.980;7.830;2023-06-26T09:59:39;8.00;;;7.30;;
1685;SDS011;840;47.980;7.830;2023-06-26T10:02:06;8.07;;;7.37;;
1685;SDS011;840;47.980;7.830;2023-06-26T10:04:34;9.53;;;7.60;;
1685;SDS011;840;47.980;7.830;2023-06-26T10:07:02;7.00;;;6.30;;
1685;SDS011;840;47.980;7.830;2023-06-26T10:09:32;8.67;;;7.17;;
1685;SDS011;840;47.980;7.830;2023-06-26T10:12:01;7.60;;;6.80;;
1685;SDS011;840;47.980;7.830;2023-06-26T10:14:33;6.10;;;5.60;;
1685;SDS011;840;47.980;7.830;2023-06-26T10:17:06;7.27;;;6.67;;
1685;SDS011;840;47.980;7.830;2023-06-26T10:19:36;7.20;;;6.60;;
1685;SDS011;840;47.980;7.830;2023-06-26T10:22:05;8.03;;;7.17;;
1685;SDS011;840;47.980;7.830;2023-06-26T10:24:35;6.93;;;6.33;;
1685;SDS011;840;47.980;7.830;2023-06-26T10:27:04;9.13;;;7.40;;
1685;SDS011;840;47.980;7.830;2023-06-26T10:29:36;7.60;;;6.90;;
1685;SDS011;840;47.980;7.830;2023-06-26T10:32:05;7.33;;;6.70;;
1685;SDS011;840;47.980;7.830;2023-06-26T10:34:34;8.00;;;7.23;;
1685;SDS011;840;47.980;7.830;2023-06-26T10:37:02;7.73;;;6.50;;
1685;SDS011;840;47.980;7.830;2023-06-26T10:39:36;7.80;;;7.00;;
1685;SDS011;840;47.980;7.830;2023-06-26T10:42:13;7.30;;;6.70;;
1685;SDS011;840;47.980;7.830;2023-06-26T10:44:40;7.60;;;6.90;;
1685;SDS011;840;47.980;7.830;2023-06-26T10:47:09;8.40;;;7.60;;
1685;SDS011;840;47.980;7.830;2023-06-26T10:49:37;7.53;;;6.93;;
1685;SDS011;840;47.980;7.830;2023-06-26T10:52:04;7.50;;;6.87;;
1685;SDS011;840;47.980;7.830;2023-06-26T10:54:32;6.83;;;6.13;;
1685;SDS011;840;47.980;7.830;2023-06-26T10:56:59;7.80;;;7.00;;
1685;SDS011;840;47.980;7.830;2023-06-26T10:59:28;8.17;;;6.97;;
1685;SDS011;840;47.980;7.830;2023-06-26T11:01:57;7.47;;;6.90;;
1685;SDS011;840;47.980;7.830;2023-06-26T11:04:39;8.10;;;6.50;;
1685;SDS011;840;47.980;7.830;2023-06-26T11:07:16;7.10;;;6.60;;
1685;SDS011;840;47.980;7.830;2023-06-26T11:09:57;11.70;;;8.93;;
1685;SDS011;840;47.980;7.830;2023-06-26T11:12:35;8.13;;;7.50;;
1685;SDS011;840;47.980;7.830;2023-06-26T11:15:03;8.23;;;7.20;;
1685;SDS011;840;47.980;7.830;2023-06-26T11:17:33;9.63;;;7.23;;
1685;SDS011;840;47.980;7.830;2023-06-26T11:20:03;8.23;;;7.53;;
1685;SDS011;840;47.980;7.830;2023-06-26T11:22:33;8.57;;;7.73;;
1685;SDS011;840;47.980;7.830;2023-06-26T11:25:01;7.40;;;6.73;;
1685;SDS011;840;47.980;7.830;2023-06-26T11:27:32;7.87;;;7.17;;
1685;SDS011;840;47.980;7.830;2023-06-26T11:30:04;8.23;;;7.53;;
1685;SDS011;840;47.980;7.830;2023-06-26T11:32:31;7.60;;;7.00;;
1685;SDS011;840;47.980;7.830;2023-06-26T11:34:58;7.23;;;6.73;;
1685;SDS011;840;47.980;7.830;2023-06-26T11:37:27;7.40;;;6.80;;
1685;SDS011;840;47.980;7.830;2023-06-26T11:39:54;7.53;;;6.90;;
1685;SDS011;840;47.980;7.830;2023-06-26T11:42:21;13.30;;;7.50;;
1685;SDS011;840;47.980;7.830;2023-06-26T11:44:49;8.57;;;7.78;;
1685;SDS011;840;47.980;7.830;2023-06-26T11:47:16;8.43;;;7.73;;
1685;SDS011;840;47.980;7.830;2023-06-26T11:49:44;9.55;;;8.10;;
1685;SDS011;840;47.980;7.830;2023-06-26T11:52:11;11.87;;;7.00;;
1685;SDS011;840;47.980;7.830;2023-06-26T11:54:40;7.60;;;6.80;;
1685;SDS011;840;47.980;7.830;2023-06-26T11:57:08;7.53;;;6.83;;
1685;SDS011;840;47.980;7.830;2023-06-26T11:59:40;8.20;;;7.40;;
1685;SDS011;840;47.980;7.830;2023-06-26T12:02:07;8.60;;;7.70;;
1685;SDS011;840;47.980;7.830;2023-06-26T12:04:35;6.63;;;6.03;;
1685;SDS011;840;47.980;7.830;2023-06-26T12:07:04;8.20;;;5.60;;
1685;SDS011;840;47.980;7.830;2023-06-26T12:09:34;6.37;;;5.67;;
1685;SDS011;840;47.980;7.830;2023-06-26T12:12:07;5.73;;;5.33;;
1685;SDS011;840;47.980;7.830;2023-06-26T12:14:34;6.83;;;6.13;;
1685;SDS011;840;47.980;7.830;2023-06-26T12:17:05;6.17;;;5.67;;
1685;SDS011;840;47.980;7.830;2023-06-26T12:19:33;6.30;;;5.73;;
1685;SDS011;840;47.980;7.830;2023-06-26T12:22:05;7.07;;;6.07;;
1685;SDS011;840;47.980;7.830;2023-06-26T12:24:32;6.00;;;5.50;;
1685;SDS011;840;47.980;7.830;2023-06-26T12:27:01;7.90;;;5.60;;
1685;SDS011;840;47.980;7.830;2023-06-26T12:29:31;6.87;;;6.17;;
1685;SDS011;840;47.980;7.830;2023-06-26T12:31:59;6.67;;;5.20;;
1685;SDS011;840;47.980;7.830;2023-06-26T12:34:27;5.73;;;5.23;;
1685;SDS011;840;47.980;7.830;2023-06-26T12:36:59;5.77;;;5.27;;
1685;SDS011;840;47.980;7.830;2023-06-26T12:39:28;6.53;;;5.93;;
1685;SDS011;840;47.980;7.830;2023-06-26T12:41:55;6.53;;;5.97;;
1685;SDS011;840;47.980;7.830;2023-06-26T12:44:25;8.50;;;6.43;;
1685;SDS011;840;47.980;7.830;2023-06-26T12:46:55;6.90;;;6.30;;
1685;SDS011;840;47.980;7.830;2023-06-26T12:49:30;7.80;;;7.00;;
1685;SDS011;840;47.980;7.830;2023-06-26T12:51:58;7.53;;;6.93;;
1685;SDS011;840;47.980;7.830;2023-06-26T12:54:25;6.30;;;5.57;;
1685;SDS011;840;47.980;7.830;2023-06-26T12:56:52;6.23;;;5.63;;
1685;SDS011;840;47.980;7.830;2023-06-26T12:59:23;6.23;;;5.67;;
1685;SDS011;840;47.980;7.830;2023-06-26T13:01:50;6.53;;;4.97;;
1685;SDS011;840;47.980;7.830;2023-06-26T13:04:18;7.40;;;4.93;;
1685;SDS011;840;47.980;7.830;2023-06-26T13:06:45;6.23;;;4.93;;
1685;SDS011;840;47.980;7.830;2023-06-26T13:09:12;4.97;;;4.57;;
1685;SDS011;840;47.980;7.830;2023-06-26T13:11:39;5.70;;;4.97;;
1685;SDS011;840;47.980;7.830;2023-06-26T13:14:06;5.13;;;4.73;;
1685;SDS011;840;47.980;7.830;2023-06-26T13:16:33;4.90;;;4.50;;
1685;SDS011;840;47.980;7.830;2023-06-26T13:19:00;5.57;;;5.00;;
1685;SDS011;840;47.980;7.830;2023-06-26T13:21:38;4.77;;;4.30;;
1685;SDS011;840;47.980;7.830;2023-06-26T13:24:05;5.37;;;4.97;;
1685;SDS011;840;47.980;7.830;2023-06-26T13:26:32;5.33;;;4.93;;
1685;SDS011;840;47.980;7.830;2023-06-26T13:28:59;6.07;;;5.47;;
1685;SDS011;840;47.980;7.830;2023-06-26T13:31:25;5.80;;;5.30;;
1685;SDS011;840;47.980;7.830;2023-06-26T13:33:52;4.90;;;4.27;;
1685;SDS011;840;47.980;7.830;2023-06-26T13:36:20;7.77;;;4.27;;
1685;SDS011;840;47.980;7.830;2023-06-26T13:38:48;4.67;;;4.30;;
1685;SDS011;840;47.980;7.830;2023-06-26T13:41:20;5.23;;;4.73;;
1685;SDS011;840;47.980;7.830;2023-06-26T13:43:47;7.03;;;4.87;;
1685;SDS011;840;47.980;7.830;2023-06-26T13:46:14;4.13;;;3.83;;
1685;SDS011;840;47.980;7.830;2023-06-26T13:48:41;5.20;;;4.33;;
1685;SDS011;840;47.980;7.830;2023-06-26T13:51:08;4.90;;;4.40;;
1685;SDS011;840;47.980;7.830;2023-06-26T13:53:35;5.20;;;4.80;;
1685;SDS011;840;47.980;7.830;2023-06-26T13:56:03;5.40;;;3.57;;
1685;SDS011;840;47.980;7.830;2023-06-26T13:58:30;4.43;;;4.03;;
1685;SDS011;840;47.980;7.830;2023-06-26T14:00:58;4.93;;;4.53;;
1685;SDS011;840;47.980;7.830;2023-06-26T14:03:25;5.27;;;4.77;;
1685;SDS011;840;47.980;7.830;2023-06-26T14:05:53;6.43;;;4.87;;
1685;SDS011;840;47.980;7.830;2023-06-26T14:08:20;3.57;;;3.30;;
1685;SDS011;840;47.980;7.830;2023-06-26T14:10:47;3.67;;;3.33;;
1685;SDS011;840;47.980;7.830;2023-06-26T14:13:16;4.93;;;2.93;;
1685;SDS011;840;47.980;7.830;2023-06-26T14:15:43;4.97;;;4.17;;
1685;SDS011;840;47.980;7.830;2023-06-26T14:18:09;4.23;;;3.50;;
1685;SDS011;840;47.980;7.830;2023-06-26T14:20:36;3.40;;;3.10;;
1685;SDS011;840;47.980;7.830;2023-06-26T14:23:03;4.27;;;3.87;;
1685;SDS011;840;47.980;7.830;2023-06-26T14:25:30;4.70;;;3.40;;
1685;SDS011;840;47.980;7.830;2023-06-26T14:27:57;4.43;;;4.03;;
1685;SDS011;840;47.980;7.830;2023-06-26T14:30:26;4.63;;;4.33;;
1685;SDS011;840;47.980;7.830;2023-06-26T14:32:52;3.93;;;3.40;;
1685;SDS011;840;47.980;7.830;2023-06-26T14:35:20;3.97;;;3.67;;
1685;SDS011;840;47.980;7.830;2023-06-26T14:37:48;4.40;;;3.63;;
1685;SDS011;840;47.980;7.830;2023-06-26T14:40:15;3.40;;;2.73;;
1685;SDS011;840;47.980;7.830;2023-06-26T14:42:42;2.80;;;2.60;;
1685;SDS011;840;47.980;7.830;2023-06-26T14:45:11;3.73;;;3.37;;
1685;SDS011;840;47.980;7.830;2023-06-26T14:47:40;3.57;;;3.23;;
1685;SDS011;840;47.980;7.830;2023-06-26T14:50:07;3.40;;;3.10;;
1685;SDS011;840;47.980;7.830;2023-06-26T14:52:35;3.63;;;3.00;;
1685;SDS011;840;47.980;7.830;2023-06-26T14:55:02;3.43;;;3.13;;
1685;SDS011;840;47.980;7.830;2023-06-26T14:57:29;3.07;;;2.77;;
1685;SDS011;840;47.980;7.830;2023-06-26T14:59:55;2.97;;;2.70;;
1685;SDS011;840;47.980;7.830;2023-06-26T15:02:22;10.73;;;3.23;;
1685;SDS011;840;47.980;7.830;2023-06-26T15:04:51;4.50;;;4.10;;
1685;SDS011;840;47.980;7.830;2023-06-26T15:07:17;9.70;;;3.30;;
1685;SDS011;840;47.980;7.830;2023-06-26T15:09:44;3.50;;;3.20;;
1685;SDS011;840;47.980;7.830;2023-06-26T15:12:11;3.17;;;2.97;;
1685;SDS011;840;47.980;7.830;2023-06-26T15:14:38;3.87;;;3.00;;
1685;SDS011;840;47.980;7.830;2023-06-26T15:17:05;3.50;;;3.20;;
1685;SDS011;840;47.980;7.830;2023-06-26T15:19:33;4.50;;;3.53;;
1685;SDS011;840;47.980;7.830;2023-06-26T15:22:01;4.23;;;3.60;;
1685;SDS011;840;47.980;7.830;2023-06-26T15:24:28;3.30;;;3.10;;
1685;SDS011;840;47.980;7.830;2023-06-26T15:26:57;3.90;;;3.60;;
1685;SDS011;840;47.980;7.830;2023-06-26T15:29:24;3.10;;;2.90;;
1685;SDS011;840;47.980;7.830;2023-06-26T15:31:51;5.30;;;4.80;;
1685;SDS011;840;47.980;7.830;2023-06-26T15:34:18;3.30;;;3.00;;